createdAt,value
2023-07-11T00:00:57.510Z,75.60
2023-07-11T00:03:24.689Z,75.90
2023-07-11T00:05:59.317Z,76.30
2023-07-11T00:08:26.185Z,76.40
2023-07-11T00:10:54.416Z,76.60
2023-07-11T00:13:21.335Z,76.90
2023-07-11T00:15:56.472Z,77.10
2023-07-11T00:18:23.506Z,77.30
2023-07-11T00:20:50.384Z,77.60
2023-07-11T00:23:17.272Z,77.70
2023-07-11T00:25:44.265Z,77.80
2023-07-11T00:28:12.870Z,77.90
2023-07-11T00:30:39.848Z,78.10
2023-07-11T00:33:06.891Z,78.20
2023-07-11T00:35:33.781Z,78.50
2023-07-11T00:38:00.770Z,78.70
2023-07-11T00:40:27.697Z,78.90
2023-07-11T00:42:55.180Z,79.20
2023-07-11T00:46:05.969Z,79.50
2023-07-11T00:48:35.326Z,79.90
2023-07-11T00:51:02.879Z,80.10
2023-07-11T00:53:31.146Z,80.50
2023-07-11T00:56:04.129Z,80.90
2023-07-11T00:58:33.874Z,81.00
2023-07-11T01:01:03.351Z,81.40
2023-07-11T01:03:30.558Z,81.70
2023-07-11T01:05:58.265Z,81.90
2023-07-11T01:08:25.739Z,82.10
2023-07-11T01:10:52.762Z,82.30
2023-07-11T01:13:19.713Z,82.50
2023-07-11T01:15:47.435Z,82.70
2023-07-11T01:18:15.848Z,83.00
2023-07-11T01:20:42.992Z,83.30
2023-07-11T01:23:11.774Z,83.60
2023-07-11T01:25:38.936Z,83.70
2023-07-11T01:28:06.506Z,83.80
2023-07-11T01:30:33.756Z,84.30
2023-07-11T01:33:01.457Z,84.40
2023-07-11T01:35:28.589Z,84.50
2023-07-11T01:37:56.374Z,84.80
2023-07-11T01:40:24.931Z,85.00
2023-07-11T01:42:53.455Z,85.30
2023-07-11T01:45:21.477Z,85.40
2023-07-11T01:47:49.695Z,85.60
2023-07-11T01:50:16.695Z,85.80
2023-07-11T01:52:43.501Z,86.10
2023-07-11T01:55:10.856Z,86.50
2023-07-11T01:57:39.044Z,86.70
2023-07-11T02:00:07.318Z,86.90
2023-07-11T02:02:34.248Z,87.20
2023-07-11T02:05:01.056Z,88.10
2023-07-11T02:07:27.859Z,87.70
2023-07-11T02:09:54.680Z,88.00
2023-07-11T02:12:21.489Z,88.40
2023-07-11T02:14:49.809Z,88.80
2023-07-11T02:17:16.980Z,89.10
2023-07-11T02:19:44.426Z,89.30
2023-07-11T02:22:11.350Z,89.40
2023-07-11T02:24:39.963Z,89.70
2023-07-11T02:27:06.955Z,90.00
2023-07-11T02:29:33.986Z,90.10
2023-07-11T02:32:02.233Z,90.30
2023-07-11T02:34:29.177Z,90.50
2023-07-11T02:36:56.009Z,90.60
2023-07-11T02:39:22.776Z,90.70
2023-07-11T02:41:49.615Z,90.90
2023-07-11T02:44:16.486Z,91.10
2023-07-11T02:46:43.422Z,91.20
2023-07-11T02:49:11.716Z,91.40
2023-07-11T02:51:38.516Z,91.50
2023-07-11T02:54:05.446Z,91.70
2023-07-11T02:56:32.317Z,91.90
2023-07-11T02:58:59.236Z,92.00
2023-07-11T03:01:26.068Z,92.20
2023-07-11T03:03:53.069Z,92.40
2023-07-11T03:06:21.590Z,92.60
2023-07-11T03:08:48.436Z,92.70
2023-07-11T03:11:15.256Z,92.90
2023-07-11T03:13:42.539Z,93.10
2023-07-11T03:16:09.930Z,93.30
2023-07-11T03:18:36.916Z,93.50
2023-07-11T03:21:04.166Z,93.70
2023-07-11T03:23:32.391Z,93.80
2023-07-11T03:25:59.285Z,94.00
2023-07-11T03:28:26.190Z,94.20
2023-07-11T03:30:53.102Z,94.50
2023-07-11T03:33:19.969Z,94.60
2023-07-11T03:35:49.496Z,94.70
2023-07-11T03:38:17.099Z,94.80
2023-07-11T03:40:45.350Z,95.00
2023-07-11T03:43:12.203Z,95.20
2023-07-11T03:45:41.472Z,95.30
2023-07-11T03:48:08.456Z,95.40
2023-07-11T03:50:35.225Z,95.50
2023-07-11T03:53:01.999Z,95.50
2023-07-11T03:55:28.826Z,95.60
2023-07-11T03:57:57.013Z,95.60
2023-07-11T04:00:23.831Z,95.60
2023-07-11T04:02:50.847Z,95.60
2023-07-11T04:05:18.045Z,95.50
2023-07-11T04:07:44.990Z,95.50
2023-07-11T04:10:11.825Z,95.50
2023-07-11T04:12:38.803Z,95.40
2023-07-11T04:15:08.255Z,95.30
2023-07-11T04:17:35.229Z,95.20
2023-07-11T04:20:02.224Z,95.10
2023-07-11T04:22:30.567Z,95.00
2023-07-11T04:24:57.480Z,94.80
2023-07-11T04:27:25.200Z,94.60
2023-07-11T04:29:52.169Z,94.50
2023-07-11T04:32:20.569Z,94.30
2023-07-11T04:34:47.471Z,94.10
2023-07-11T04:37:14.517Z,93.90
2023-07-11T04:39:41.640Z,93.80
2023-07-11T04:42:08.816Z,93.60
2023-07-11T04:44:35.612Z,93.30
2023-07-11T04:47:02.689Z,93.10
2023-07-11T04:49:30.887Z,92.90
2023-07-11T04:51:57.671Z,92.60
2023-07-11T04:54:26.934Z,92.50
2023-07-11T04:56:58.222Z,92.20
2023-07-11T04:59:25.809Z,92.00
2023-07-11T05:01:53.014Z,91.80
2023-07-11T05:04:20.036Z,91.60
2023-07-11T05:06:50.481Z,91.40
2023-07-11T05:09:18.023Z,91.20
2023-07-11T05:11:45.491Z,91.00
2023-07-11T05:14:12.470Z,90.70
2023-07-11T05:16:39.886Z,90.60
2023-07-11T05:19:06.725Z,90.30
2023-07-11T05:21:33.669Z,90.20
2023-07-11T05:24:02.365Z,89.60
2023-07-11T05:26:30.004Z,89.30
2023-07-11T05:28:56.969Z,89.20
2023-07-11T05:31:23.910Z,88.80
2023-07-11T05:33:53.458Z,88.30
2023-07-11T05:36:34.130Z,87.70
2023-07-11T05:39:05.987Z,87.20
2023-07-11T05:41:33.864Z,86.80
2023-07-11T05:44:00.765Z,86.50
2023-07-11T05:46:28.120Z,86.30
2023-07-11T05:48:56.514Z,85.90
2023-07-11T05:51:24.032Z,85.90
2023-07-11T05:53:51.727Z,85.60
2023-07-11T05:56:20.846Z,85.30
2023-07-11T05:58:48.855Z,84.90
2023-07-11T06:01:17.391Z,84.40
2023-07-11T06:03:44.678Z,84.30
2023-07-11T06:06:11.936Z,83.30
2023-07-11T06:08:39.213Z,82.70
2023-07-11T06:11:07.289Z,82.30
2023-07-11T06:13:37.377Z,81.90
2023-07-11T06:16:06.975Z,80.70
2023-07-11T06:18:35.917Z,79.80
2023-07-11T06:21:03.010Z,78.00
2023-07-11T06:23:29.877Z,77.60
2023-07-11T06:25:56.802Z,76.50
2023-07-11T06:28:23.681Z,76.00
2023-07-11T06:30:52.207Z,75.10
2023-07-11T06:33:19.081Z,74.20
2023-07-11T06:35:49.073Z,73.50
2023-07-11T06:38:15.999Z,71.50
2023-07-11T06:40:48.239Z,69.50
2023-07-11T06:43:15.159Z,68.80
2023-07-11T06:45:42.258Z,68.30
2023-07-11T06:48:10.504Z,67.90
2023-07-11T06:50:37.446Z,67.30
2023-07-11T06:53:04.298Z,66.70
2023-07-11T06:55:31.139Z,66.10
2023-07-11T06:57:57.980Z,64.90
2023-07-11T07:00:25.012Z,64.60
2023-07-11T07:02:51.922Z,63.70
2023-07-11T07:05:20.202Z,63.30
2023-07-11T07:07:47.129Z,62.70
2023-07-11T07:10:14.194Z,62.10
2023-07-11T07:12:41.347Z,61.60
2023-07-11T07:15:09.380Z,61.50
2023-07-11T07:17:36.255Z,60.80
2023-07-11T07:20:03.341Z,60.80
2023-07-11T07:22:31.487Z,60.70
2023-07-11T07:25:02.120Z,60.20
2023-07-11T07:27:33.159Z,59.40
2023-07-11T07:29:59.961Z,59.20
2023-07-11T07:32:26.856Z,58.90
2023-07-11T07:34:53.669Z,58.70
2023-07-11T07:37:20.437Z,59.00
2023-07-11T07:39:48.800Z,58.90
2023-07-11T07:42:15.678Z,58.70
2023-07-11T07:44:42.668Z,58.60
2023-07-11T07:47:09.640Z,58.30
2023-07-11T07:49:49.270Z,57.90
2023-07-11T07:52:21.415Z,58.20
2023-07-11T07:54:49.644Z,58.30
2023-07-11T07:57:16.510Z,57.70
2023-07-11T07:59:43.349Z,57.90
2023-07-11T08:02:10.628Z,57.80
2023-07-11T08:04:37.459Z,57.80
2023-07-11T08:07:04.810Z,57.70
2023-07-11T08:09:31.581Z,57.60
2023-07-11T08:12:07.354Z,57.50
2023-07-11T08:14:36.247Z,57.50
2023-07-11T08:17:03.565Z,57.30
2023-07-11T08:19:30.365Z,57.00
2023-07-11T08:21:57.249Z,57.30
2023-07-11T08:24:24.208Z,57.20
2023-07-11T08:26:51.438Z,57.00
2023-07-11T08:29:29.667Z,57.10
2023-07-11T08:31:57.260Z,57.10
2023-07-11T08:34:24.169Z,57.00
2023-07-11T08:36:51.098Z,56.60
2023-07-11T08:39:18.268Z,56.60
2023-07-11T08:41:46.772Z,56.80
2023-07-11T08:44:17.766Z,57.10
2023-07-11T08:46:52.466Z,57.00
2023-07-11T08:49:25.195Z,56.80
2023-07-11T08:51:54.627Z,57.40
2023-07-11T08:54:28.464Z,56.60
2023-07-11T08:56:57.464Z,56.20
2023-07-11T08:59:30.662Z,56.10
2023-07-11T09:02:02.753Z,55.90
2023-07-11T09:04:31.456Z,55.60
2023-07-11T09:07:03.624Z,55.50
2023-07-11T09:09:30.477Z,56.00
2023-07-11T09:12:14.031Z,55.50
2023-07-11T09:14:50.823Z,55.50
2023-07-11T09:17:27.691Z,55.30
2023-07-11T09:20:12.231Z,55.10
2023-07-11T09:22:48.476Z,55.20
2023-07-11T09:25:19.558Z,55.30
2023-07-11T09:27:51.907Z,55.30
2023-07-11T09:30:23.446Z,55.40
2023-07-11T09:32:52.355Z,55.20
2023-07-11T09:35:26.084Z,54.80
2023-07-11T09:37:58.826Z,55.10
2023-07-11T09:40:33.647Z,55.10
2023-07-11T09:43:01.359Z,54.60
2023-07-11T09:45:33.149Z,54.50
2023-07-11T09:48:15.404Z,53.60
2023-07-11T09:51:06.828Z,53.30
2023-07-11T09:53:42.897Z,52.60
2023-07-11T09:56:13.577Z,52.50
2023-07-11T09:58:46.102Z,52.70
2023-07-11T10:01:19.681Z,52.50
2023-07-11T10:03:48.077Z,52.50
2023-07-11T10:06:46.403Z,51.80
2023-07-11T10:09:23.424Z,51.10
2023-07-11T10:11:55.414Z,51.20
2023-07-11T10:14:26.801Z,50.90
2023-07-11T10:16:56.157Z,50.90
2023-07-11T10:19:24.641Z,51.30
2023-07-11T10:21:52.984Z,50.70
2023-07-11T10:24:23.026Z,50.30
2023-07-11T10:26:55.889Z,50.20
2023-07-11T10:29:28.416Z,50.00
2023-07-11T10:31:58.685Z,49.70
2023-07-11T10:34:43.051Z,49.30
2023-07-11T10:37:14.394Z,49.10
2023-07-11T10:39:45.405Z,49.10
2023-07-11T10:42:25.198Z,48.60
2023-07-11T10:44:58.961Z,48.30
2023-07-11T10:47:31.916Z,48.30
2023-07-11T10:50:01.363Z,48.20
2023-07-11T10:52:29.638Z,48.30
2023-07-11T10:55:02.370Z,48.40
2023-07-11T10:57:43.383Z,48.50
2023-07-11T11:00:16.199Z,48.50
2023-07-11T11:02:56.847Z,48.40
2023-07-11T11:05:32.004Z,47.20
2023-07-11T11:08:03.311Z,47.10
2023-07-11T11:10:40.246Z,47.00
2023-07-11T11:13:19.515Z,47.10
2023-07-11T11:15:52.342Z,45.60
2023-07-11T11:18:37.428Z,45.30
2023-07-11T11:21:21.192Z,44.90
2023-07-11T11:24:07.007Z,44.20
2023-07-11T11:26:39.147Z,43.90
2023-07-11T11:29:17.136Z,43.60
2023-07-11T11:34:30.968Z,43.50
2023-07-11T11:37:07.650Z,43.70
2023-07-11T11:39:43.551Z,44.30
2023-07-11T11:42:16.016Z,44.30
2023-07-11T11:50:39.732Z,44.50
2023-07-11T11:55:25.461Z,44.70
2023-07-11T11:57:53.289Z,43.90
2023-07-11T12:00:39.765Z,44.00
2023-07-11T12:03:20.766Z,44.10
2023-07-11T12:05:53.522Z,43.80
2023-07-11T12:08:31.578Z,44.10
2023-07-11T12:11:29.007Z,44.10
2023-07-11T12:14:23.907Z,43.60
2023-07-11T12:16:50.767Z,44.10
2023-07-11T12:19:33.207Z,43.70
2023-07-11T12:22:02.870Z,42.60
2023-07-11T12:24:45.470Z,42.70
2023-07-11T12:27:42.037Z,42.80
2023-07-11T12:30:40.588Z,43.40
2023-07-11T12:33:32.499Z,43.10
2023-07-11T12:36:42.999Z,42.40
2023-07-11T12:39:24.055Z,42.20
2023-07-11T12:42:03.048Z,41.60
2023-07-11T12:44:32.257Z,41.20
2023-07-11T12:46:59.054Z,40.60
2023-07-11T12:49:27.819Z,40.40
2023-07-11T12:52:04.781Z,39.60
2023-07-11T12:54:31.655Z,37.90
2023-07-11T12:56:59.838Z,36.80
2023-07-11T12:59:28.310Z,36.10
2023-07-11T13:01:57.905Z,35.20
2023-07-11T13:04:30.516Z,34.60
2023-07-11T13:06:57.676Z,34.70
2023-07-11T13:09:25.712Z,34.80
2023-07-11T13:11:53.452Z,34.10
2023-07-11T13:14:23.202Z,33.50
2023-07-11T13:16:50.693Z,31.90
2023-07-11T13:19:20.626Z,31.00
2023-07-11T13:21:50.013Z,30.80
2023-07-11T13:24:24.029Z,32.50
2023-07-11T13:26:51.337Z,32.20
2023-07-11T13:29:20.670Z,32.40
2023-07-11T13:32:04.213Z,33.50
2023-07-11T13:34:32.569Z,34.70
2023-07-11T13:36:59.682Z,34.30
2023-07-11T13:39:28.461Z,33.30
2023-07-11T13:41:56.802Z,32.60
2023-07-11T13:44:28.789Z,33.40
2023-07-11T13:46:57.234Z,32.40
2023-07-11T13:49:26.755Z,31.40
2023-07-11T13:51:59.218Z,30.40
2023-07-11T13:54:31.844Z,29.70
2023-07-11T13:56:58.857Z,29.50
2023-07-11T14:01:57.471Z,29.10
2023-07-11T14:04:27.852Z,29.10
2023-07-11T14:06:54.958Z,29.30
2023-07-11T14:09:22.177Z,29.90
2023-07-11T14:11:49.073Z,30.70
2023-07-11T14:14:29.198Z,31.90
2023-07-11T14:17:08.980Z,32.10
2023-07-11T14:19:36.753Z,31.50
2023-07-11T14:22:12.431Z,30.00
2023-07-11T14:24:42.951Z,29.80
2023-07-11T14:27:13.013Z,29.60
2023-07-11T14:29:41.684Z,30.00
2023-07-11T14:32:13.857Z,30.50
2023-07-11T14:34:40.949Z,30.50
2023-07-11T14:37:14.377Z,31.30
2023-07-11T14:39:41.138Z,30.80
2023-07-11T14:42:19.862Z,29.60
2023-07-11T14:44:46.772Z,28.90
2023-07-11T14:47:15.162Z,28.10
2023-07-11T14:49:42.072Z,27.90
2023-07-11T14:52:24.474Z,26.30
2023-07-11T14:57:14.865Z,26.20
2023-07-11T15:00:14.429Z,27.00
2023-07-11T15:02:43.053Z,27.10
2023-07-11T15:10:18.127Z,27.00
2023-07-11T15:17:50.088Z,27.50
2023-07-11T15:20:19.517Z,26.90
2023-07-11T15:22:48.731Z,26.00
2023-07-11T15:25:18.177Z,26.10
2023-07-11T15:27:45.585Z,26.10
2023-07-11T15:30:16.428Z,26.40
2023-07-11T15:32:43.796Z,26.20
2023-07-11T15:35:17.026Z,26.40
2023-07-11T15:37:44.520Z,26.40
2023-07-11T15:40:17.300Z,26.00
2023-07-11T15:42:45.455Z,25.60
2023-07-11T15:45:22.048Z,25.00
2023-07-11T15:47:49.441Z,25.10
2023-07-11T15:50:19.852Z,25.40
2023-07-11T15:52:46.751Z,25.40
2023-07-11T15:55:15.599Z,25.70
2023-07-11T15:57:43.150Z,25.80
2023-07-11T16:00:15.368Z,25.60
2023-07-11T16:02:42.375Z,25.50
2023-07-11T16:05:10.459Z,25.50
2023-07-11T16:07:39.312Z,25.50
2023-07-11T16:10:22.522Z,25.50
2023-07-11T16:12:49.382Z,25.60
2023-07-11T16:15:16.335Z,25.70
2023-07-11T16:17:45.956Z,26.00
2023-07-11T16:20:18.323Z,26.10
2023-07-11T16:22:47.317Z,26.20
2023-07-11T16:25:17.638Z,26.40
2023-07-11T16:27:54.465Z,26.40
2023-07-11T16:30:24.185Z,26.20
2023-07-11T16:32:52.145Z,26.10
2023-07-11T16:35:21.351Z,25.90
2023-07-11T16:37:49.670Z,26.20
2023-07-11T16:40:19.849Z,26.10
2023-07-11T16:42:46.929Z,25.80
2023-07-11T16:45:15.053Z,25.70
2023-07-11T16:47:42.765Z,25.60
2023-07-11T16:50:16.495Z,25.40
2023-07-11T16:52:43.757Z,25.50
2023-07-11T16:55:12.728Z,25.40
2023-07-11T16:57:40.788Z,25.20
2023-07-11T17:00:16.113Z,25.00
2023-07-11T17:02:43.641Z,25.10
2023-07-11T17:05:10.766Z,25.40
2023-07-11T17:07:38.458Z,25.20
2023-07-11T17:10:06.777Z,24.90
2023-07-11T17:12:35.083Z,25.00
2023-07-11T17:15:03.359Z,25.10
2023-07-11T17:17:30.995Z,25.40
2023-07-11T17:19:58.156Z,25.80
2023-07-11T17:22:25.638Z,26.10
2023-07-11T17:24:52.840Z,26.40
2023-07-11T17:27:22.255Z,26.80
2023-07-11T17:29:52.321Z,27.40
2023-07-11T17:32:21.017Z,26.90
2023-07-11T17:34:49.011Z,27.10
2023-07-11T17:37:24.599Z,27.60
2023-07-11T17:39:51.570Z,27.80
2023-07-11T17:42:18.708Z,27.50
2023-07-11T17:44:47.989Z,27.60
2023-07-11T17:49:54.826Z,27.70
2023-07-11T17:52:24.574Z,27.60
2023-07-11T17:54:52.067Z,27.80
2023-07-11T17:57:21.438Z,28.20
2023-07-11T17:59:48.390Z,28.50
2023-07-11T18:02:22.898Z,28.80
2023-07-11T18:04:52.416Z,29.00
2023-07-11T18:07:21.259Z,29.20
2023-07-11T18:09:48.598Z,29.60
2023-07-11T18:12:21.825Z,29.80
2023-07-11T18:14:49.224Z,29.90
2023-07-11T18:17:18.166Z,29.90
2023-07-11T18:19:47.170Z,30.10
2023-07-11T18:22:16.520Z,30.50
2023-07-11T18:24:43.761Z,30.70
2023-07-11T18:27:18.465Z,30.70
2023-07-11T18:29:46.832Z,30.80
2023-07-11T18:32:21.130Z,31.60
2023-07-11T18:34:51.332Z,31.70
2023-07-11T18:37:18.937Z,31.80
2023-07-11T18:39:47.054Z,31.90
2023-07-11T18:42:15.773Z,32.40
2023-07-11T18:44:42.916Z,33.20
2023-07-11T18:47:18.773Z,34.00
2023-07-11T18:49:46.323Z,34.70
2023-07-11T18:52:20.224Z,35.10
2023-07-11T18:54:47.040Z,36.30
2023-07-11T18:57:14.729Z,36.50
2023-07-11T18:59:42.273Z,36.90
2023-07-11T19:02:15.000Z,37.40
2023-07-11T19:04:42.200Z,37.80
2023-07-11T19:07:11.024Z,38.10
2023-07-11T19:09:39.162Z,38.30
2023-07-11T19:12:30.199Z,38.60
2023-07-11T19:14:59.558Z,39.20
2023-07-11T19:17:43.010Z,39.20
2023-07-11T19:20:18.235Z,40.60
2023-07-11T19:22:46.177Z,40.30
2023-07-11T19:25:16.204Z,41.30
2023-07-11T19:27:44.899Z,41.00
2023-07-11T19:30:30.277Z,41.10
2023-07-11T19:32:58.206Z,41.60
2023-07-11T19:35:27.949Z,41.50
2023-07-11T19:37:56.754Z,41.80
2023-07-11T19:40:26.593Z,42.10
2023-07-11T19:42:54.126Z,42.70
2023-07-11T19:45:23.446Z,43.10
2023-07-11T19:47:50.710Z,43.40
2023-07-11T19:50:32.236Z,43.70
2023-07-11T19:52:59.933Z,44.10
2023-07-11T19:55:28.854Z,44.10
2023-07-11T19:57:55.926Z,44.30
2023-07-11T20:00:30.158Z,44.30
2023-07-11T20:02:57.200Z,44.70
2023-07-11T20:05:26.227Z,45.00
2023-07-11T20:07:53.434Z,45.10
2023-07-11T20:10:33.894Z,45.40
2023-07-11T20:13:02.664Z,45.80
2023-07-11T20:15:29.799Z,45.90
2023-07-11T20:17:56.742Z,46.00
2023-07-11T20:20:33.848Z,46.20
2023-07-11T20:23:01.041Z,46.50
2023-07-11T20:25:27.859Z,46.80
2023-07-11T20:28:08.031Z,46.90
2023-07-11T20:30:36.936Z,47.10
2023-07-11T20:33:03.829Z,47.30
2023-07-11T20:35:34.148Z,47.40
2023-07-11T20:38:00.972Z,47.60
2023-07-11T20:40:30.100Z,47.80
2023-07-11T20:42:58.266Z,48.10
2023-07-11T20:45:26.451Z,48.50
2023-07-11T20:47:53.314Z,48.70
2023-07-11T20:50:30.285Z,49.10
2023-07-11T20:52:57.529Z,49.30
2023-07-11T20:55:24.321Z,49.50
2023-07-11T20:57:51.942Z,49.80
2023-07-11T21:00:25.816Z,49.80
2023-07-11T21:02:54.182Z,50.00
2023-07-11T21:05:22.906Z,50.10
2023-07-11T21:07:49.896Z,50.10
2023-07-11T21:10:20.616Z,50.10
2023-07-11T21:12:47.515Z,50.10
2023-07-11T21:15:14.694Z,50.00
2023-07-11T21:17:42.918Z,50.00
2023-07-11T21:20:16.649Z,50.00
2023-07-11T21:22:43.607Z,50.00
2023-07-11T21:25:10.611Z,50.00
2023-07-11T21:27:37.582Z,50.10
2023-07-11T21:30:19.964Z,50.20
2023-07-11T21:32:48.891Z,50.30
2023-07-11T21:35:18.139Z,50.20
2023-07-11T21:37:45.092Z,50.80
2023-07-11T21:40:21.273Z,50.70
2023-07-11T21:42:49.144Z,50.90
2023-07-11T21:45:16.624Z,52.20
2023-07-11T21:47:43.773Z,54.50
2023-07-11T21:50:34.592Z,54.30
2023-07-11T21:53:01.947Z,58.50
2023-07-11T21:55:31.355Z,62.80
2023-07-11T21:57:58.400Z,73.30
2023-07-11T22:00:27.259Z,85.50
2023-07-11T22:02:54.361Z,98.80
2023-07-11T22:05:22.968Z,99.90
2023-07-11T22:07:49.741Z,99.90
2023-07-11T22:10:25.071Z,99.90
2023-07-11T22:12:52.053Z,99.90
2023-07-11T22:15:18.909Z,99.90
2023-07-11T22:17:45.956Z,99.90
2023-07-11T22:20:16.497Z,99.90
2023-07-11T22:22:44.908Z,99.90
2023-07-11T22:25:12.371Z,99.90
2023-07-11T22:27:39.296Z,99.90
2023-07-11T22:30:19.474Z,99.90
2023-07-11T22:32:46.525Z,99.90
2023-07-11T22:35:13.657Z,99.90
2023-07-11T22:37:40.438Z,99.90
2023-07-11T22:40:32.086Z,99.90
2023-07-11T22:43:00.192Z,99.90
2023-07-11T22:45:27.517Z,99.90
2023-07-11T22:47:54.399Z,99.90
2023-07-11T22:50:24.366Z,99.90
2023-07-11T22:52:51.366Z,99.90
2023-07-11T22:55:20.798Z,99.90
2023-07-11T22:57:48.350Z,99.90
2023-07-11T23:00:17.464Z,99.90
2023-07-11T23:02:44.679Z,99.90
2023-07-11T23:05:12.188Z,99.90
2023-07-11T23:07:39.606Z,99.90
2023-07-11T23:10:26.955Z,99.90
2023-07-11T23:12:53.899Z,99.90
2023-07-11T23:15:21.441Z,99.90
2023-07-11T23:17:49.201Z,99.90
2023-07-11T23:20:23.032Z,99.90
2023-07-11T23:22:51.521Z,99.90
2023-07-11T23:25:20.584Z,99.90
2023-07-11T23:27:48.763Z,99.90
2023-07-11T23:30:28.111Z,99.90
2023-07-11T23:32:59.033Z,99.90
2023-07-11T23:38:12.905Z,99.90
2023-07-11T23:40:43.973Z,99.90
2023-07-11T23:43:19.538Z,99.90
2023-07-11T23:45:49.965Z,99.90
2023-07-11T23:48:21.769Z,99.90
2023-07-11T23:50:51.796Z,99.90
2023-07-11T23:53:23.057Z,99.90
2023-07-11T23:55:53.129Z,99.90
2023-07-11T23:58:27.896Z,99.90
